Detalii statie Girov TCE 3 BRAZI [000011A2]

Toti senzorii

Date Temperatura solului [C]Precipitatii [mm]Voltaj baterie [mV]Leaf Wetness [Min]HC Air temperature [C]HC Relative humidity [%]Punctul de roua [C]
medieminmaxsumaultimatimpmedieminmaxmediemediemin
2020-01-21 22:00:00 0 6600 0 1.43 1.3 1.58 0 0 0
2020-01-21 23:00:00 0 6590 0 1.41 1.23 1.78 0 0 0
2020-01-22 00:00:00 0 6572 0 1.51 1.38 1.73 0 0 0
2020-01-22 01:00:00 0 6562 0 1.54 1.25 1.75 83.33 1.2 0
2020-01-22 02:00:00 0 6562 0 1.15 1 1.38 100 1.1 1
2020-01-22 03:00:00 0 6552 0 1.18 0.88 1.64 100 1.1 0.8
2020-01-22 04:00:00 0 6562 0 1.67 1.42 1.95 100 1.6 1.4
2020-01-22 05:00:00 0 6562 0 1.33 1.19 1.48 100 1.2 1.1
2020-01-22 06:00:00 0 6552 0 1.09 0.85 1.26 100 1 0.8
2020-01-22 07:00:00 0 6542 0 1.26 1.14 1.37 100 1.2 1.1
2020-01-22 08:00:00 0 6542 0 1.24 0.97 1.83 100 1.2 0.9
2020-01-22 09:00:00 0 6826 0 2.01 1.63 2.69 100 1.9 1.6
2020-01-22 10:00:00 0 7010 0 3.94 3.02 4.83 100 3.9 3
2020-01-22 11:00:00 0 7010 0 5.68 4.73 6.79 100 5.6 4.7
2020-01-22 12:00:00 0 7010 0 7.97 7.11 8.81 96.37 7.3 6.8
2020-01-22 13:00:00 0 6972 0 8.47 7.75 9.78 91.55 7 6.1
2020-01-22 14:00:00 0 7000 0 10.43 9.98 11.27 94.56 9.4 8.5
2020-01-22 15:00:00 0 7000 0 10.51 10.1 11 95.24 9.6 9
2020-01-22 16:00:00 0 6992 0 9.47 8.81 10.27 97.93 9 8.4
2020-01-22 17:00:00 0 6854 0 7.42 6.52 8.46 97.25 6.8 6.2
2020-01-22 18:00:00 0 6718 0 5.29 3.4 6.41 98.77 5 3.4
2020-01-22 19:00:00 0 6640 0 2.46 1.98 3.12 100 2.4 1.9
2020-01-22 20:00:00 0 6600 0 2.83 2.59 3.05 100 2.8 2.5
2020-01-22 21:00:00 0 6590 0 2.75 2.46 3.21 100 2.7 2.4
2020-01-22 22:00:00 0 6590 0 2.03 1.82 2.3 100 1.9 1.8
2020-01-22 23:00:00 0 6582 0 1.96 1.76 2.18 100 1.9 1.7
2020-01-23 00:00:00 0 6562 0 2.05 1.93 2.18 100 2 1.9
2020-01-23 01:00:00 0 6562 0 2.35 2.17 2.61 100 2.3 2.1
2020-01-23 02:00:00 0 6552 0 2.22 2.1 2.49 100 2.1 2.1
2020-01-23 03:00:00 0 6552 0 2.16 1.54 2.71 100 2.1 1.5
2020-01-23 04:00:00 0 6552 0 1.9 1.35 2.47 100 1.8 1.3
2020-01-23 05:00:00 0 6542 0 1.3 1.15 1.5 100 1.2 1.1
2020-01-23 06:00:00 0 6532 0 1.26 1.13 1.38 100 1.2 1.1
2020-01-23 07:00:00 0 6542 0 1.26 0.98 1.58 100 1.2 0.9
2020-01-23 08:00:00 0 6542 0 1.46 0.97 1.76 100 1.4 0.9
2020-01-23 09:00:00 0 6698 0 0.82 0.57 1.31 100 0.7 0.5
2020-01-23 10:00:00 0 6894 0 2.25 1.78 2.56 100 2.2 1.7
2020-01-23 11:00:00 0 7010 0 3.42 2.62 4.54 99.46 3.2 2.6
2020-01-23 12:00:00 0 7000 0 3.5 3.09 4.21 100 3.4 3
2020-01-23 13:00:00 0 6992 0 4.2 3.53 5.2 100 4.1 3.5
2020-01-23 14:00:00 0 7010 0 5.2 4.57 5.62 99.69 5.1 4.5
2020-01-23 15:00:00 0 7010 0 3.74 2.85 5.41 99.51 3.6 2.8
2020-01-23 16:00:00 0 7000 0 2.73 2.44 3.1 100 2.7 2.4
2020-01-23 17:00:00 0 6914 0 1.63 0.27 2.36 100 1.5 0.2
2020-01-23 18:00:00 0 6776 0 -0.11 -1.67 0.73 100 0 -1.5
2020-01-23 19:00:00 0 6678 0 -2.19 -2.59 -1.92 100 -2 -2.4
2020-01-23 20:00:00 0 6620 0 -2.53 -2.93 -2.16 100 -2.3 -2.8
2020-01-23 21:00:00 0 6590 0 -3.87 -4.42 -3.22 100 -3.7 -4.3